createdAt,value
2023-09-17T00:02:06.532Z,14.90
2023-09-17T00:04:33.863Z,14.80
2023-09-17T00:07:01.200Z,14.80
2023-09-17T00:09:28.428Z,14.70
2023-09-17T00:11:55.956Z,14.70
2023-09-17T00:14:23.520Z,14.70
2023-09-17T00:16:50.844Z,14.70
2023-09-17T00:19:18.151Z,14.70
2023-09-17T00:21:45.539Z,14.60
2023-09-17T00:24:13.398Z,14.60
2023-09-17T00:26:40.656Z,14.50
2023-09-17T00:29:07.815Z,14.50
2023-09-17T00:31:35.918Z,14.50
2023-09-17T00:34:03.276Z,14.40
2023-09-17T00:36:30.456Z,14.40
2023-09-17T00:38:58.414Z,14.30
2023-09-17T00:41:25.624Z,14.30
2023-09-17T00:43:53.483Z,14.20
2023-09-17T00:46:21.378Z,14.20
2023-09-17T00:48:48.773Z,14.10
2023-09-17T00:51:16.295Z,14.10
2023-09-17T00:53:43.905Z,14.00
2023-09-17T00:56:11.256Z,14.10
2023-09-17T00:58:39.116Z,14.10
2023-09-17T01:01:07.570Z,14.10
2023-09-17T01:03:35.703Z,14.10
2023-09-17T01:06:05.345Z,14.10
2023-09-17T01:08:33.569Z,14.00
2023-09-17T01:11:03.725Z,14.00
2023-09-17T01:13:32.634Z,14.00
2023-09-17T01:16:00.687Z,14.00
2023-09-17T01:18:29.003Z,14.00
2023-09-17T01:21:02.281Z,13.90
2023-09-17T01:23:33.843Z,13.90
2023-09-17T01:26:14.793Z,14.00
2023-09-17T01:28:42.208Z,14.00
2023-09-17T01:31:10.619Z,14.00
2023-09-17T01:33:37.986Z,14.00
2023-09-17T01:36:12.532Z,13.90
2023-09-17T01:38:41.732Z,13.90
2023-09-17T01:41:10.156Z,13.90
2023-09-17T01:43:39.434Z,13.80
2023-09-17T01:46:08.817Z,13.80
2023-09-17T01:48:37.711Z,13.70
2023-09-17T01:51:06.738Z,13.70
2023-09-17T01:53:34.941Z,13.70
2023-09-17T01:56:02.308Z,13.70
2023-09-17T01:58:30.784Z,13.70
2023-09-17T02:00:58.464Z,13.70
2023-09-17T02:03:25.772Z,13.60
2023-09-17T02:05:53.036Z,13.60
2023-09-17T02:08:20.394Z,13.50
2023-09-17T02:10:47.681Z,13.50
2023-09-17T02:13:14.993Z,13.40
2023-09-17T02:15:42.248Z,13.40
2023-09-17T02:18:09.980Z,13.40
2023-09-17T02:20:40.275Z,13.30
2023-09-17T02:23:10.695Z,13.40
2023-09-17T02:25:38.094Z,13.40
2023-09-17T02:28:05.511Z,13.40
2023-09-17T02:30:32.862Z,13.50
2023-09-17T02:33:00.131Z,13.40
2023-09-17T02:35:28.901Z,13.50
2023-09-17T02:37:56.125Z,13.40
2023-09-17T02:40:25.874Z,13.30
2023-09-17T02:42:53.121Z,13.30
2023-09-17T02:45:20.388Z,13.30
2023-09-17T02:47:48.333Z,13.20
2023-09-17T02:50:15.832Z,13.20
2023-09-17T02:52:43.261Z,13.20
2023-09-17T02:55:10.630Z,13.20
2023-09-17T02:57:37.995Z,13.10
2023-09-17T03:00:10.391Z,13.10
2023-09-17T03:02:40.524Z,13.20
2023-09-17T03:05:11.827Z,13.10
2023-09-17T03:07:40.189Z,13.20
2023-09-17T03:10:08.690Z,13.20
2023-09-17T03:12:36.119Z,13.10
2023-09-17T03:15:06.333Z,13.10
2023-09-17T03:17:38.777Z,13.00
2023-09-17T03:20:15.408Z,13.00
2023-09-17T03:22:43.078Z,12.90
2023-09-17T03:25:13.698Z,12.90
2023-09-17T03:27:44.803Z,12.90
2023-09-17T03:30:13.450Z,12.80
2023-09-17T03:32:53.433Z,12.70
2023-09-17T03:35:27.054Z,12.70
2023-09-17T03:37:54.567Z,12.70
2023-09-17T03:40:21.852Z,12.70
2023-09-17T03:42:49.070Z,12.70
2023-09-17T03:45:16.364Z,12.70
2023-09-17T03:47:45.430Z,12.70
2023-09-17T03:50:14.857Z,12.70
2023-09-17T03:52:45.167Z,12.70
2023-09-17T03:55:13.263Z,12.80
2023-09-17T03:57:41.555Z,12.70
2023-09-17T04:00:12.069Z,12.70
2023-09-17T04:02:43.313Z,12.60
2023-09-17T04:05:12.700Z,12.60
2023-09-17T04:07:42.092Z,12.70
2023-09-17T04:10:11.144Z,12.70
2023-09-17T04:12:40.311Z,12.60
2023-09-17T04:15:11.549Z,12.70
2023-09-17T04:17:38.901Z,12.70
2023-09-17T04:20:25.026Z,12.70
2023-09-17T04:22:52.499Z,12.60
2023-09-17T04:25:22.039Z,12.70
2023-09-17T04:27:53.071Z,12.70
2023-09-17T04:30:22.868Z,12.80
2023-09-17T04:32:52.301Z,12.80
2023-09-17T04:35:20.784Z,12.80
2023-09-17T04:37:50.711Z,12.80
2023-09-17T04:40:27.132Z,12.90
2023-09-17T04:42:56.450Z,12.90
2023-09-17T04:45:40.348Z,13.00
2023-09-17T04:48:27.689Z,13.00
2023-09-17T04:50:55.030Z,13.10
2023-09-17T04:53:22.418Z,13.10
2023-09-17T04:55:50.662Z,13.20
2023-09-17T04:58:21.957Z,13.20
2023-09-17T05:00:50.727Z,13.30
2023-09-17T05:03:17.955Z,13.30
2023-09-17T05:05:47.561Z,13.40
2023-09-17T05:08:18.225Z,13.50
2023-09-17T05:10:46.552Z,13.60
2023-09-17T05:13:13.756Z,13.70
2023-09-17T05:15:41.359Z,13.70
2023-09-17T05:18:11.044Z,13.90
2023-09-17T05:20:45.721Z,13.90
2023-09-17T05:23:13.235Z,14.10
2023-09-17T05:25:41.109Z,14.10
2023-09-17T05:28:10.734Z,14.30
2023-09-17T05:30:39.296Z,14.40
2023-09-17T05:33:07.000Z,14.40
2023-09-17T05:35:35.895Z,14.60
2023-09-17T05:38:03.271Z,14.60
2023-09-17T05:40:31.228Z,14.70
2023-09-17T05:42:59.362Z,14.80
2023-09-17T05:45:27.672Z,14.90
2023-09-17T05:47:55.545Z,14.90
2023-09-17T05:50:23.123Z,15.00
2023-09-17T05:52:50.897Z,15.00
2023-09-17T05:55:18.673Z,15.00
2023-09-17T05:57:46.025Z,15.10
2023-09-17T06:00:14.536Z,15.20
2023-09-17T06:02:42.283Z,15.30
2023-09-17T06:05:12.863Z,15.50
2023-09-17T06:07:40.135Z,15.70
2023-09-17T06:10:07.731Z,15.90
2023-09-17T06:12:35.039Z,16.00
2023-09-17T06:15:04.462Z,16.10
2023-09-17T06:17:31.838Z,16.20
2023-09-17T06:19:59.273Z,16.30
2023-09-17T06:22:27.874Z,16.60
2023-09-17T06:24:56.210Z,16.70
2023-09-17T06:27:23.560Z,16.80
2023-09-17T06:29:50.882Z,17.10
2023-09-17T06:32:19.127Z,17.30
2023-09-17T06:34:46.534Z,17.40
2023-09-17T06:37:14.077Z,17.50
2023-09-17T06:39:41.797Z,17.60
2023-09-17T06:42:09.193Z,17.70
2023-09-17T06:44:36.406Z,17.80
2023-09-17T06:47:04.801Z,17.80
2023-09-17T06:49:32.190Z,18.00
2023-09-17T06:51:59.482Z,18.40
2023-09-17T06:54:26.652Z,18.60
2023-09-17T06:56:54.151Z,18.80
2023-09-17T06:59:21.345Z,19.00
2023-09-17T07:01:48.571Z,19.20
2023-09-17T07:04:15.931Z,19.60
2023-09-17T07:06:43.131Z,20.20
2023-09-17T07:09:10.338Z,20.40
2023-09-17T07:11:37.645Z,20.30
2023-09-17T07:14:10.973Z,20.10
2023-09-17T07:16:40.612Z,20.20
2023-09-17T07:19:08.003Z,21.20
2023-09-17T07:21:35.313Z,22.70
2023-09-17T07:24:02.579Z,24.40
2023-09-17T07:26:30.076Z,26.20
2023-09-17T07:28:57.744Z,27.70
2023-09-17T07:31:25.156Z,29.20
2023-09-17T07:33:52.754Z,30.20
2023-09-17T07:36:20.185Z,31.30
2023-09-17T07:38:47.505Z,31.70
2023-09-17T07:41:14.672Z,32.20
2023-09-17T07:43:42.138Z,32.30
2023-09-17T07:46:12.862Z,32.30
2023-09-17T07:48:40.820Z,33.00
2023-09-17T07:51:08.392Z,33.30
2023-09-17T07:53:35.620Z,34.10
2023-09-17T07:56:02.975Z,34.80
2023-09-17T07:58:30.330Z,34.00
2023-09-17T08:00:57.546Z,34.10
2023-09-17T08:03:24.815Z,34.30
2023-09-17T08:05:52.093Z,34.10
2023-09-17T08:08:19.409Z,34.40
2023-09-17T08:10:47.669Z,34.70
2023-09-17T08:13:15.677Z,35.00
2023-09-17T08:15:43.238Z,35.50
2023-09-17T08:18:10.544Z,35.70
2023-09-17T08:20:37.955Z,35.10
2023-09-17T08:23:05.277Z,35.10
2023-09-17T08:25:34.646Z,35.20
2023-09-17T08:28:02.545Z,35.00
2023-09-17T08:30:31.203Z,34.20
2023-09-17T08:33:01.023Z,33.60
2023-09-17T08:35:28.352Z,33.30
2023-09-17T08:37:56.600Z,31.70
2023-09-17T08:40:31.255Z,30.90
2023-09-17T08:43:00.801Z,29.80
2023-09-17T08:45:30.225Z,28.80
2023-09-17T08:47:57.637Z,28.40
2023-09-17T08:50:27.039Z,28.10
2023-09-17T08:52:58.099Z,27.80
2023-09-17T08:55:25.581Z,27.50
2023-09-17T08:58:04.865Z,27.60
2023-09-17T09:00:33.632Z,27.60
2023-09-17T09:03:02.577Z,27.60
2023-09-17T09:05:30.270Z,27.60
2023-09-17T09:07:58.132Z,27.70
2023-09-17T09:10:26.090Z,27.70
2023-09-17T09:12:53.653Z,27.90
2023-09-17T09:15:20.893Z,28.00
2023-09-17T09:17:48.342Z,28.10
2023-09-17T09:20:18.024Z,27.90
2023-09-17T09:22:46.477Z,27.90
2023-09-17T09:25:16.221Z,28.00
2023-09-17T09:27:43.979Z,27.90
2023-09-17T09:30:13.190Z,28.10
2023-09-17T09:32:42.186Z,28.20
2023-09-17T09:35:09.875Z,28.30
2023-09-17T09:37:37.330Z,28.60
2023-09-17T09:40:06.266Z,28.50
2023-09-17T09:42:33.910Z,28.60
2023-09-17T09:45:01.045Z,28.70
2023-09-17T09:47:28.365Z,28.70
2023-09-17T09:49:55.567Z,28.90
2023-09-17T09:52:23.326Z,28.90
2023-09-17T09:54:50.474Z,28.90
2023-09-17T09:57:19.960Z,29.00
2023-09-17T09:59:49.131Z,29.20
2023-09-17T10:02:18.838Z,29.20
2023-09-17T10:04:46.765Z,29.20
2023-09-17T10:07:16.385Z,29.10
2023-09-17T10:09:44.378Z,29.20
2023-09-17T10:12:11.615Z,29.10
2023-09-17T10:14:39.495Z,29.20
2023-09-17T10:17:08.035Z,29.20
2023-09-17T10:19:36.564Z,29.50
2023-09-17T10:22:07.624Z,29.20
2023-09-17T10:24:37.440Z,29.30
2023-09-17T10:27:07.606Z,29.20
2023-09-17T10:29:36.835Z,29.40
2023-09-17T10:32:05.359Z,29.50
2023-09-17T10:34:34.617Z,29.40
2023-09-17T10:37:04.863Z,29.30
2023-09-17T10:39:34.545Z,29.10
2023-09-17T10:42:04.033Z,29.20
2023-09-17T10:44:32.991Z,29.20
2023-09-17T10:47:02.499Z,29.20
2023-09-17T10:49:33.013Z,29.20
2023-09-17T10:52:00.715Z,29.20
2023-09-17T10:54:27.887Z,29.20
2023-09-17T10:56:57.001Z,29.10
2023-09-17T10:59:25.176Z,29.20
2023-09-17T11:01:54.025Z,29.20
2023-09-17T11:04:25.000Z,29.20
2023-09-17T11:06:53.422Z,29.10
2023-09-17T11:09:21.709Z,29.20
2023-09-17T11:11:48.828Z,29.40
2023-09-17T11:14:17.274Z,29.60
2023-09-17T11:16:47.981Z,29.20
2023-09-17T11:19:17.969Z,28.70
2023-09-17T11:21:49.571Z,28.30
2023-09-17T11:24:19.774Z,28.40
2023-09-17T11:26:49.140Z,28.30
2023-09-17T11:29:16.449Z,28.40
2023-09-17T11:32:05.062Z,28.30
2023-09-17T11:34:35.459Z,28.60
2023-09-17T11:37:05.769Z,28.80
2023-09-17T11:39:37.568Z,28.80
2023-09-17T11:42:08.807Z,28.90
2023-09-17T11:44:38.118Z,28.90
2023-09-17T11:47:09.823Z,28.80
2023-09-17T11:49:37.370Z,28.70
2023-09-17T11:52:11.499Z,28.80
2023-09-17T11:54:49.377Z,29.10
2023-09-17T11:57:26.662Z,29.30
2023-09-17T11:59:55.518Z,29.40
2023-09-17T12:02:24.038Z,29.50
2023-09-17T12:04:53.192Z,29.40
2023-09-17T12:07:21.090Z,29.30
2023-09-17T12:09:49.062Z,29.20
2023-09-17T12:12:20.375Z,29.20
2023-09-17T12:14:49.520Z,29.20
2023-09-17T12:17:18.572Z,29.30
2023-09-17T12:19:48.372Z,29.20
2023-09-17T12:22:16.593Z,29.00
2023-09-17T12:24:50.894Z,29.00
2023-09-17T12:27:25.896Z,29.10
2023-09-17T12:29:54.933Z,29.10
2023-09-17T12:32:26.759Z,29.00
2023-09-17T12:34:55.932Z,28.90
2023-09-17T12:37:23.579Z,29.00
2023-09-17T12:39:51.315Z,29.00
2023-09-17T12:42:19.101Z,29.20
2023-09-17T12:44:46.356Z,29.10
2023-09-17T12:47:13.825Z,28.90
2023-09-17T12:49:43.266Z,28.90
2023-09-17T12:52:13.277Z,29.00
2023-09-17T12:54:41.173Z,28.80
2023-09-17T12:57:08.477Z,28.80
2023-09-17T12:59:39.163Z,28.90
2023-09-17T13:02:08.337Z,28.90
2023-09-17T13:04:39.316Z,28.90
2023-09-17T13:07:16.975Z,28.90
2023-09-17T13:09:45.791Z,28.90
2023-09-17T13:12:20.747Z,29.10
2023-09-17T13:14:51.950Z,29.30
2023-09-17T13:17:21.483Z,29.50
2023-09-17T13:19:49.520Z,29.60
2023-09-17T13:22:18.236Z,29.50
2023-09-17T13:24:46.900Z,29.60
2023-09-17T13:27:19.125Z,29.70
2023-09-17T13:29:51.676Z,29.50
2023-09-17T13:32:21.435Z,29.10
2023-09-17T13:34:49.484Z,29.10
2023-09-17T13:37:17.639Z,29.10
2023-09-17T13:39:46.974Z,28.80
2023-09-17T13:42:14.498Z,28.70
2023-09-17T13:44:42.042Z,28.60
2023-09-17T13:47:12.745Z,28.60
2023-09-17T13:49:42.489Z,28.60
2023-09-17T13:52:10.869Z,28.50
2023-09-17T13:54:39.893Z,28.30
2023-09-17T13:57:07.468Z,28.30
2023-09-17T13:59:34.600Z,28.40
2023-09-17T14:02:03.206Z,28.40
2023-09-17T14:04:30.326Z,28.50
2023-09-17T14:06:58.157Z,28.30
2023-09-17T14:09:25.414Z,28.10
2023-09-17T14:11:52.498Z,28.00
2023-09-17T14:14:19.737Z,28.10
2023-09-17T14:16:47.499Z,28.20
2023-09-17T14:19:20.065Z,28.00
2023-09-17T14:21:48.419Z,27.90
2023-09-17T14:24:15.823Z,27.90
2023-09-17T14:26:43.177Z,27.90
2023-09-17T14:29:10.325Z,27.90
2023-09-17T14:31:39.981Z,27.90
2023-09-17T14:34:08.900Z,27.80
2023-09-17T14:36:36.045Z,27.80
2023-09-17T14:39:03.176Z,27.70
2023-09-17T14:41:31.559Z,27.80
2023-09-17T14:43:58.843Z,27.80
2023-09-17T14:46:26.156Z,27.70
2023-09-17T14:48:53.906Z,27.70
2023-09-17T14:51:21.558Z,27.60
2023-09-17T14:53:48.753Z,27.60
2023-09-17T14:56:17.122Z,27.60
2023-09-17T14:58:44.365Z,27.60
2023-09-17T15:01:17.660Z,27.60
2023-09-17T15:03:53.951Z,27.60
2023-09-17T15:06:21.080Z,27.50
2023-09-17T15:08:48.171Z,27.40
2023-09-17T15:11:15.359Z,27.30
2023-09-17T15:13:42.558Z,27.20
2023-09-17T15:16:09.798Z,27.10
2023-09-17T15:18:36.983Z,27.10
2023-09-17T15:21:04.609Z,27.10
2023-09-17T15:23:32.289Z,27.10
2023-09-17T15:25:59.423Z,27.10
2023-09-17T15:28:28.637Z,27.10
2023-09-17T15:30:55.848Z,27.00
2023-09-17T15:33:23.179Z,26.90
2023-09-17T15:35:51.967Z,26.80
2023-09-17T15:38:19.566Z,26.70
2023-09-17T15:40:51.987Z,26.50
2023-09-17T15:43:19.650Z,26.40
2023-09-17T15:45:46.822Z,26.30
2023-09-17T15:48:14.026Z,26.10
2023-09-17T15:50:42.612Z,26.00
2023-09-17T15:53:10.003Z,25.90
2023-09-17T15:55:37.145Z,25.90
2023-09-17T15:58:05.916Z,25.80
2023-09-17T16:00:33.219Z,25.70
2023-09-17T16:03:01.230Z,25.70
2023-09-17T16:05:28.878Z,25.60
2023-09-17T16:07:56.057Z,25.50
2023-09-17T16:10:24.168Z,25.50
2023-09-17T16:12:51.375Z,25.40
2023-09-17T16:15:18.655Z,25.40
2023-09-17T16:17:45.867Z,25.30
2023-09-17T16:20:13.036Z,25.20
2023-09-17T16:22:40.269Z,25.10
2023-09-17T16:25:09.573Z,25.00
2023-09-17T16:27:36.834Z,24.90
2023-09-17T16:30:08.576Z,24.80
2023-09-17T16:32:36.412Z,24.60
2023-09-17T16:35:04.345Z,24.50
2023-09-17T16:37:31.425Z,24.40
2023-09-17T16:39:58.497Z,24.40
2023-09-17T16:42:25.611Z,24.20
2023-09-17T16:44:52.660Z,24.10
2023-09-17T16:47:20.500Z,24.00
2023-09-17T16:49:48.662Z,23.80
2023-09-17T16:52:15.753Z,23.70
2023-09-17T16:54:43.010Z,23.60
2023-09-17T16:57:11.130Z,23.40
2023-09-17T16:59:38.393Z,23.20
2023-09-17T17:02:07.282Z,23.10
2023-09-17T17:04:34.852Z,22.90
2023-09-17T17:07:02.159Z,22.80
2023-09-17T17:09:29.422Z,22.70
2023-09-17T17:11:56.792Z,22.50
2023-09-17T17:14:24.120Z,22.40
2023-09-17T17:16:51.334Z,22.30
2023-09-17T17:19:18.446Z,22.10
2023-09-17T17:21:45.650Z,22.00
2023-09-17T17:24:12.819Z,21.80
2023-09-17T17:26:39.971Z,21.70
2023-09-17T17:29:07.045Z,21.60
2023-09-17T17:31:35.484Z,21.50
2023-09-17T17:34:02.671Z,21.40
2023-09-17T17:36:30.234Z,21.40
2023-09-17T17:38:57.560Z,21.30
2023-09-17T17:41:24.677Z,21.20
2023-09-17T17:43:52.553Z,21.10
2023-09-17T17:46:19.879Z,21.00
2023-09-17T17:48:48.498Z,20.90
2023-09-17T17:51:16.024Z,20.90
2023-09-17T17:53:43.251Z,20.80
2023-09-17T17:56:11.413Z,20.80
2023-09-17T17:58:38.953Z,20.80
2023-09-17T18:01:06.341Z,20.70
2023-09-17T18:03:33.779Z,20.60
2023-09-17T18:06:01.131Z,20.50
2023-09-17T18:08:28.735Z,20.40
2023-09-17T18:10:56.140Z,20.30
2023-09-17T18:13:23.418Z,20.30
2023-09-17T18:15:50.820Z,20.30
2023-09-17T18:18:19.608Z,20.20
2023-09-17T18:20:46.926Z,20.20
2023-09-17T18:23:15.396Z,20.20
2023-09-17T18:25:43.294Z,20.20
2023-09-17T18:28:11.047Z,20.10
2023-09-17T18:30:38.428Z,20.00
2023-09-17T18:33:07.519Z,20.00
2023-09-17T18:35:35.170Z,19.90
2023-09-17T18:38:03.548Z,19.80
2023-09-17T18:40:31.195Z,19.70
2023-09-17T18:42:58.325Z,19.70
2023-09-17T18:45:25.698Z,19.70
2023-09-17T18:47:52.856Z,19.60
2023-09-17T18:50:20.283Z,19.60
2023-09-17T18:52:47.779Z,19.60
2023-09-17T18:55:14.988Z,19.50
2023-09-17T18:57:42.298Z,19.50
2023-09-17T19:00:10.151Z,19.50
2023-09-17T19:02:41.015Z,19.50
2023-09-17T19:05:10.623Z,19.50
2023-09-17T19:07:40.468Z,19.40
2023-09-17T19:10:15.198Z,19.30
2023-09-17T19:12:42.544Z,19.30
2023-09-17T19:15:11.047Z,19.30
2023-09-17T19:17:38.755Z,19.30
2023-09-17T19:20:07.414Z,19.30
2023-09-17T19:22:34.682Z,19.20
2023-09-17T19:25:01.853Z,19.20
2023-09-17T19:27:30.582Z,19.10
2023-09-17T19:29:57.845Z,19.00
2023-09-17T19:32:25.088Z,19.00
2023-09-17T19:34:54.482Z,18.90
2023-09-17T19:37:21.805Z,18.80
2023-09-17T19:39:49.051Z,18.70
2023-09-17T19:42:16.867Z,18.70
2023-09-17T19:44:43.989Z,18.60
2023-09-17T19:47:11.278Z,18.50
2023-09-17T19:49:39.667Z,18.40
2023-09-17T19:52:07.168Z,18.40
2023-09-17T19:54:34.298Z,18.40
2023-09-17T19:57:01.625Z,18.30
2023-09-17T19:59:29.001Z,18.30
2023-09-17T20:01:56.408Z,18.30
2023-09-17T20:04:23.884Z,18.20
2023-09-17T20:06:55.121Z,18.20
2023-09-17T20:09:23.207Z,18.10
2023-09-17T20:11:50.755Z,18.10
2023-09-17T20:14:18.102Z,18.10
2023-09-17T20:16:45.335Z,18.00
2023-09-17T20:19:13.043Z,18.00
2023-09-17T20:21:40.793Z,18.00
2023-09-17T20:24:08.624Z,17.90
2023-09-17T20:26:39.136Z,17.90
2023-09-17T20:29:06.956Z,18.00
2023-09-17T20:31:34.280Z,18.10
2023-09-17T20:34:02.154Z,18.10
2023-09-17T20:36:29.393Z,18.10
2023-09-17T20:38:57.980Z,18.00
2023-09-17T20:41:26.874Z,18.00
2023-09-17T20:43:54.385Z,18.00
2023-09-17T20:46:21.588Z,18.00
2023-09-17T20:48:48.852Z,17.90
2023-09-17T20:51:16.661Z,17.80
2023-09-17T20:53:44.016Z,17.80
2023-09-17T20:56:13.011Z,17.70
2023-09-17T20:58:41.301Z,17.70
2023-09-17T21:01:08.447Z,17.70
2023-09-17T21:03:35.955Z,17.70
2023-09-17T21:06:04.416Z,17.60
2023-09-17T21:08:31.580Z,17.60
2023-09-17T21:10:59.194Z,17.50
2023-09-17T21:13:26.578Z,17.40
2023-09-17T21:15:54.807Z,17.30
2023-09-17T21:18:22.211Z,17.30
2023-09-17T21:20:50.934Z,17.30
2023-09-17T21:23:18.214Z,17.20
2023-09-17T21:25:45.431Z,17.10
2023-09-17T21:28:12.669Z,17.10
2023-09-17T21:30:43.078Z,17.00
2023-09-17T21:33:10.446Z,17.00
2023-09-17T21:35:37.829Z,17.00
2023-09-17T21:38:05.066Z,17.00
2023-09-17T21:40:32.355Z,16.90
2023-09-17T21:42:59.462Z,16.90
2023-09-17T21:45:27.326Z,16.90
2023-09-17T21:47:55.342Z,16.80
2023-09-17T21:50:22.578Z,16.70
2023-09-17T21:52:49.902Z,16.70
2023-09-17T21:55:17.380Z,16.70
2023-09-17T21:57:44.637Z,16.70
2023-09-17T22:00:23.202Z,16.70
2023-09-17T22:02:56.841Z,16.60
2023-09-17T22:05:25.947Z,16.60
2023-09-17T22:07:53.259Z,16.60
2023-09-17T22:10:20.525Z,16.60
2023-09-17T22:12:47.718Z,16.60
2023-09-17T22:15:14.841Z,16.50
2023-09-17T22:17:42.478Z,16.60
2023-09-17T22:20:20.160Z,16.60
2023-09-17T22:22:47.739Z,16.50
2023-09-17T22:25:15.342Z,16.50
2023-09-17T22:27:42.760Z,16.50
2023-09-17T22:30:10.442Z,16.50
2023-09-17T22:32:38.159Z,16.50
2023-09-17T22:35:06.252Z,16.50
2023-09-17T22:37:36.346Z,16.50
2023-09-17T22:40:07.653Z,16.50
2023-09-17T22:42:36.078Z,16.40
2023-09-17T22:45:05.548Z,16.40
2023-09-17T22:47:34.262Z,16.30
2023-09-17T22:50:02.537Z,16.20
2023-09-17T22:52:29.930Z,16.20
2023-09-17T22:54:57.283Z,16.10
2023-09-17T22:57:25.044Z,16.00
2023-09-17T22:59:52.848Z,16.00
2023-09-17T23:02:21.044Z,15.90
2023-09-17T23:04:48.383Z,15.80
2023-09-17T23:07:15.915Z,15.80
2023-09-17T23:09:43.004Z,15.80
2023-09-17T23:12:11.000Z,15.80
2023-09-17T23:14:38.423Z,15.80
2023-09-17T23:17:05.751Z,15.80
2023-09-17T23:19:34.322Z,15.80
2023-09-17T23:22:01.485Z,15.80
2023-09-17T23:24:28.802Z,15.80
2023-09-17T23:26:56.025Z,15.80
2023-09-17T23:29:23.298Z,15.70
2023-09-17T23:31:50.648Z,15.70
2023-09-17T23:34:18.606Z,15.70
2023-09-17T23:36:45.829Z,15.70
2023-09-17T23:39:13.194Z,15.70
2023-09-17T23:41:40.332Z,15.80
2023-09-17T23:44:07.484Z,15.80
2023-09-17T23:46:34.626Z,15.80
2023-09-17T23:49:02.152Z,15.80
2023-09-17T23:51:29.255Z,15.80
2023-09-17T23:53:56.409Z,15.70
2023-09-17T23:56:24.152Z,15.70
2023-09-17T23:58:51.519Z,15.60
